createdAt,value
2019-04-10T00:02:55.829Z,80.3
2019-04-10T00:13:00.481Z,80.6
2019-04-10T00:23:03.928Z,81.7
2019-04-10T00:33:08.379Z,81.8
2019-04-10T00:43:12.849Z,82.4
2019-04-10T00:53:17.157Z,82.1
2019-04-10T01:03:21.879Z,82.2
2019-04-10T01:13:27.258Z,82.3
2019-04-10T01:23:31.076Z,82.2
2019-04-10T01:33:34.655Z,82.7
2019-04-10T01:43:39.366Z,82.4
2019-04-10T01:53:42.796Z,82.4
2019-04-10T02:03:47.504Z,82.6
2019-04-10T02:13:51.907Z,83.5
2019-04-10T02:23:55.499Z,83.4
2019-04-10T02:34:01.761Z,84
2019-04-10T02:44:05.303Z,83.8
2019-04-10T02:54:11.224Z,83.6
2019-04-10T03:04:21.055Z,84.3
2019-04-10T03:14:26.234Z,84.8
2019-04-10T03:24:31.689Z,84.4
2019-04-10T03:34:42.897Z,84.4
2019-04-10T03:44:52.299Z,85.3
2019-04-10T03:54:56.669Z,86.4
2019-04-10T04:05:00.336Z,87
2019-04-10T04:15:03.831Z,87
2019-04-10T04:25:07.282Z,86.3
2019-04-10T04:35:11.952Z,86.1
2019-04-10T04:45:17.505Z,87.6
2019-04-10T04:55:21.931Z,87.7
2019-04-10T05:05:25.483Z,87.6
2019-04-10T05:15:29.189Z,88
2019-04-10T05:25:34.993Z,87.7
2019-04-10T05:35:39.941Z,88.8
2019-04-10T05:45:43.429Z,89.1
2019-04-10T05:55:47.421Z,89
2019-04-10T06:05:50.960Z,89.3
2019-04-10T06:15:55.249Z,90
2019-04-10T06:25:58.696Z,90.4
2019-04-10T06:36:03.000Z,90.5
2019-04-10T06:46:06.618Z,90.6
2019-04-10T06:56:11.423Z,90.8
2019-04-10T07:06:22.639Z,90.9
2019-04-10T07:17:07.024Z,91
2019-04-10T07:27:17.017Z,91.2
2019-04-10T07:37:25.498Z,91.3
2019-04-10T07:47:31.544Z,91.8
2019-04-10T07:57:34.990Z,91.9
2019-04-10T08:07:40.737Z,91.9
2019-04-10T08:17:44.630Z,92.2
2019-04-10T08:27:48.193Z,92
2019-04-10T08:37:52.897Z,92.5
2019-04-10T08:47:57.453Z,92.5
2019-04-10T08:58:00.910Z,92.9
2019-04-10T09:08:04.663Z,93.4
2019-04-10T09:18:11.438Z,93.1
2019-04-10T09:28:16.325Z,93.9
2019-04-10T09:38:21.051Z,94.1
2019-04-10T09:48:24.468Z,93.2
2019-04-10T09:58:27.882Z,93.6
2019-04-10T10:08:31.792Z,93.2
2019-04-10T10:18:35.438Z,93.6
2019-04-10T10:28:39.641Z,92.7
2019-04-10T10:38:43.535Z,92.9
2019-04-10T10:48:46.948Z,92.9
2019-04-10T10:58:54.285Z,93.1
2019-04-10T11:09:02.410Z,93.8
2019-04-10T11:19:07.364Z,93.9
2019-04-10T11:29:11.961Z,92.2
2019-04-10T11:41:23.414Z,93.1
2019-04-10T11:51:33.763Z,92.6
2019-04-10T12:01:48.243Z,92.6
2019-04-10T12:12:01.684Z,93
2019-04-10T12:22:05.566Z,93.3
2019-04-10T12:32:09.006Z,92.9
2019-04-10T12:42:12.674Z,93.3
2019-04-10T12:52:16.568Z,93.5
2019-04-10T13:02:20.725Z,93.1
2019-04-10T13:12:25.170Z,93.7
2019-04-10T13:22:28.634Z,94.5
2019-04-10T13:32:32.067Z,93.7
2019-04-10T13:42:35.497Z,92.8
2019-04-10T13:52:38.951Z,92.8
2019-04-10T14:02:42.390Z,93
2019-04-10T14:12:47.284Z,92.8
2019-04-10T14:22:50.705Z,92.4
2019-04-10T14:32:56.427Z,92.4
2019-04-10T14:43:00.087Z,92.2
2019-04-10T14:53:03.529Z,92
2019-04-10T15:03:06.983Z,92.4
2019-04-10T15:13:21.042Z,92.5
2019-04-10T15:23:29.779Z,92.6
2019-04-10T15:33:33.208Z,92.2
2019-04-10T15:43:37.300Z,92.7
2019-04-10T15:53:41.181Z,92.3
2019-04-10T16:03:45.080Z,92.1
2019-04-10T16:13:48.691Z,91.6
2019-04-10T16:23:52.137Z,92.3
2019-04-10T16:33:56.800Z,92.7
2019-04-10T16:44:00.685Z,92.2
2019-04-10T16:54:04.427Z,92.2
2019-04-10T17:04:08.999Z,92.6
2019-04-10T17:14:13.342Z,92.4
2019-04-10T17:24:17.580Z,92.4
2019-04-10T17:34:21.036Z,92.3
2019-04-10T17:44:26.005Z,92.4
2019-04-10T17:54:31.752Z,92.2
2019-04-10T18:04:35.939Z,92.6
2019-04-10T18:14:44.015Z,93
2019-04-10T18:24:49.247Z,92.9
2019-04-10T18:34:54.505Z,93
2019-04-10T18:44:59.433Z,93
2019-04-10T18:55:04.265Z,93.1
2019-04-10T19:05:09.949Z,93.3
2019-04-10T19:15:15.103Z,93.2
2019-04-10T19:25:18.944Z,93.1
2019-04-10T19:35:23.392Z,93
2019-04-10T19:45:28.042Z,93
2019-04-10T19:55:31.930Z,93.2
2019-04-10T20:05:37.484Z,93.1
2019-04-10T20:15:42.798Z,93.2
2019-04-10T20:25:46.500Z,92.9
2019-04-10T20:35:50.975Z,92.4
2019-04-10T20:45:54.422Z,91.8
2019-04-10T20:56:00.185Z,91.2
2019-04-10T21:06:05.527Z,91.5
2019-04-10T21:16:11.501Z,91.7
2019-04-10T21:26:14.944Z,91.3
2019-04-10T21:36:20.666Z,90.7
2019-04-10T21:46:24.365Z,90.7
2019-04-10T21:56:28.856Z,90.5
2019-04-10T22:06:33.540Z,90.8
2019-04-10T22:16:44.488Z,89.1
2019-04-10T22:26:47.968Z,90.2
2019-04-10T22:36:51.471Z,89.7
2019-04-10T22:46:54.916Z,88.8
2019-04-10T22:56:58.648Z,88.7
2019-04-10T23:07:02.092Z,88.9
2019-04-10T23:17:05.526Z,89
2019-04-10T23:27:09.505Z,89.7
2019-04-10T23:37:13.067Z,89
2019-04-10T23:47:16.495Z,89.4
2019-04-10T23:57:21.288Z,89.9
